La Rose, Illinois
Current Conditions -  °F | °C
As of 5:55 PM on Wednesday 22 Oct 2014 (Local Time) from KC75 Reporting Station
Clear Clear  
Wind Chill: 55°   Ceiling: Unl
Heat Index: 55°   Visibility: 10mi
Dew Point: 35°   Wind: 3mph
Humidity: 46%   Direction: 140°SE
Pressure: 30.23"   Gusts: NA
Location:  40.98°N, 89.24°W
Report Text: KC75 222255Z AUTO 14003KT 10SM CLR 13/02 A3023 RMK AO2 T01300016
Loading
Personal Weather Stations






























Interactive Weather Map
Tropical Storm Tracking
New forecast layout! Learn more

10-Day Weather Forecast

Advertisements
Track Severe Weather on mobile